Austinville, Virginia
Current Conditions -  °F | °C
As of 1:35 AM on Monday 24 Nov 2014 (Local Time) from KHLX Reporting Station
Overcast Overcast  
Wind Chill: 53°   Ceiling: 1100
Heat Index: 53°   Visibility: 10mi
Dew Point: 51°   Wind: 18mph
Humidity: 94%   Direction: 190°S
Pressure: 29.67"   Gusts: 25mph
Location:  36.85°N, 80.91°W
Report Text: KHLX 240635Z AUTO 19016G22KT 10SM OVC011 12/11 A2967 RMK AO2 T01180108
Loading
Personal Weather Stations






























Interactive Weather Map New forecast layout! Learn more

10-Day Weather Forecast

Advertisements
Track Severe Weather on mobile